sensor_id;sensor_type;location;lat;lon;timestamp;P1;durP1;ratioP1;P2;durP2;ratioP2
71836;SDS011;59686;51.716;7.016;2024-03-25T00:00:11;14.13;;;2.90;;
71836;SDS011;59686;51.716;7.016;2024-03-25T00:02:47;8.77;;;2.97;;
71836;SDS011;59686;51.716;7.016;2024-03-25T00:05:13;12.17;;;2.93;;
71836;SDS011;59686;51.716;7.016;2024-03-25T00:07:40;14.13;;;3.73;;
71836;SDS011;59686;51.716;7.016;2024-03-25T00:10:06;9.23;;;2.37;;
71836;SDS011;59686;51.716;7.016;2024-03-25T00:12:33;9.97;;;3.00;;
71836;SDS011;59686;51.716;7.016;2024-03-25T00:15:02;12.37;;;2.90;;
71836;SDS011;59686;51.716;7.016;2024-03-25T00:17:28;14.13;;;3.03;;
71836;SDS011;59686;51.716;7.016;2024-03-25T00:19:54;10.70;;;3.37;;
71836;SDS011;59686;51.716;7.016;2024-03-25T00:22:20;9.67;;;2.43;;
71836;SDS011;59686;51.716;7.016;2024-03-25T00:24:47;14.17;;;3.37;;
71836;SDS011;59686;51.716;7.016;2024-03-25T00:27:14;7.97;;;2.63;;
71836;SDS011;59686;51.716;7.016;2024-03-25T00:29:40;14.53;;;2.87;;
71836;SDS011;59686;51.716;7.016;2024-03-25T00:32:06;11.63;;;3.10;;
71836;SDS011;59686;51.716;7.016;2024-03-25T00:34:31;11.00;;;3.07;;
71836;SDS011;59686;51.716;7.016;2024-03-25T00:36:58;13.17;;;3.13;;
71836;SDS011;59686;51.716;7.016;2024-03-25T00:39:24;9.60;;;3.03;;
71836;SDS011;59686;51.716;7.016;2024-03-25T00:41:51;12.07;;;2.80;;
71836;SDS011;59686;51.716;7.016;2024-03-25T00:44:17;15.03;;;3.30;;
71836;SDS011;59686;51.716;7.016;2024-03-25T00:46:44;9.87;;;3.20;;
71836;SDS011;59686;51.716;7.016;2024-03-25T00:49:10;8.03;;;2.40;;
71836;SDS011;59686;51.716;7.016;2024-03-25T00:51:36;9.60;;;2.73;;
71836;SDS011;59686;51.716;7.016;2024-03-25T00:54:02;12.67;;;3.13;;
71836;SDS011;59686;51.716;7.016;2024-03-25T00:56:31;11.13;;;2.50;;
71836;SDS011;59686;51.716;7.016;2024-03-25T00:58:57;13.40;;;3.53;;
71836;SDS011;59686;51.716;7.016;2024-03-25T01:01:34;10.63;;;2.90;;
71836;SDS011;59686;51.716;7.016;2024-03-25T01:04:03;9.13;;;2.93;;
71836;SDS011;59686;51.716;7.016;2024-03-25T01:06:29;16.80;;;3.20;;
71836;SDS011;59686;51.716;7.016;2024-03-25T01:08:55;8.10;;;2.47;;
71836;SDS011;59686;51.716;7.016;2024-03-25T01:11:21;8.53;;;2.90;;
71836;SDS011;59686;51.716;7.016;2024-03-25T01:13:48;9.70;;;3.00;;
71836;SDS011;59686;51.716;7.016;2024-03-25T01:16:14;10.37;;;2.93;;
71836;SDS011;59686;51.716;7.016;2024-03-25T01:18:40;8.17;;;2.80;;
71836;SDS011;59686;51.716;7.016;2024-03-25T01:21:05;9.90;;;2.53;;
71836;SDS011;59686;51.716;7.016;2024-03-25T01:23:31;10.47;;;2.67;;
71836;SDS011;59686;51.716;7.016;2024-03-25T01:25:57;9.73;;;2.93;;
71836;SDS011;59686;51.716;7.016;2024-03-25T01:28:24;10.43;;;3.00;;
71836;SDS011;59686;51.716;7.016;2024-03-25T01:30:50;8.17;;;2.37;;
71836;SDS011;59686;51.716;7.016;2024-03-25T01:33:15;8.10;;;2.60;;
71836;SDS011;59686;51.716;7.016;2024-03-25T01:35:41;6.77;;;2.33;;
71836;SDS011;59686;51.716;7.016;2024-03-25T01:38:07;6.87;;;2.20;;
71836;SDS011;59686;51.716;7.016;2024-03-25T01:40:33;6.40;;;2.37;;
71836;SDS011;59686;51.716;7.016;2024-03-25T01:42:59;10.73;;;2.60;;
71836;SDS011;59686;51.716;7.016;2024-03-25T01:45:27;8.93;;;2.60;;
71836;SDS011;59686;51.716;7.016;2024-03-25T01:47:56;8.33;;;2.43;;
71836;SDS011;59686;51.716;7.016;2024-03-25T01:50:23;8.07;;;2.30;;
71836;SDS011;59686;51.716;7.016;2024-03-25T01:52:50;7.47;;;2.30;;
71836;SDS011;59686;51.716;7.016;2024-03-25T01:55:24;8.63;;;2.57;;
71836;SDS011;59686;51.716;7.016;2024-03-25T01:57:52;9.33;;;2.73;;
71836;SDS011;59686;51.716;7.016;2024-03-25T02:00:18;9.43;;;2.30;;
71836;SDS011;59686;51.716;7.016;2024-03-25T02:02:45;11.43;;;3.20;;
71836;SDS011;59686;51.716;7.016;2024-03-25T02:05:12;8.73;;;2.43;;
71836;SDS011;59686;51.716;7.016;2024-03-25T02:07:39;8.47;;;2.63;;
71836;SDS011;59686;51.716;7.016;2024-03-25T02:10:07;7.97;;;2.43;;
71836;SDS011;59686;51.716;7.016;2024-03-25T02:12:42;8.80;;;2.77;;
71836;SDS011;59686;51.716;7.016;2024-03-25T02:15:09;8.93;;;2.97;;
71836;SDS011;59686;51.716;7.016;2024-03-25T02:17:35;10.77;;;3.00;;
71836;SDS011;59686;51.716;7.016;2024-03-25T02:20:02;7.57;;;2.40;;
71836;SDS011;59686;51.716;7.016;2024-03-25T02:22:30;5.77;;;2.20;;
71836;SDS011;59686;51.716;7.016;2024-03-25T02:27:36;9.43;;;2.57;;
71836;SDS011;59686;51.716;7.016;2024-03-25T02:30:06;5.80;;;2.60;;
71836;SDS011;59686;51.716;7.016;2024-03-25T02:32:34;9.10;;;2.90;;
71836;SDS011;59686;51.716;7.016;2024-03-25T02:35:00;11.27;;;3.60;;
71836;SDS011;59686;51.716;7.016;2024-03-25T02:37:28;12.40;;;4.10;;
71836;SDS011;59686;51.716;7.016;2024-03-25T02:39:57;12.37;;;4.40;;
71836;SDS011;59686;51.716;7.016;2024-03-25T02:42:25;14.50;;;4.87;;
71836;SDS011;59686;51.716;7.016;2024-03-25T02:44:53;12.87;;;4.63;;
71836;SDS011;59686;51.716;7.016;2024-03-25T02:47:19;17.23;;;5.67;;
71836;SDS011;59686;51.716;7.016;2024-03-25T02:49:45;15.20;;;6.00;;
71836;SDS011;59686;51.716;7.016;2024-03-25T02:52:11;11.33;;;5.70;;
71836;SDS011;59686;51.716;7.016;2024-03-25T02:54:37;14.50;;;6.47;;
71836;SDS011;59686;51.716;7.016;2024-03-25T02:57:02;15.23;;;6.70;;
71836;SDS011;59686;51.716;7.016;2024-03-25T02:59:28;18.70;;;8.07;;
71836;SDS011;59686;51.716;7.016;2024-03-25T03:01:54;20.37;;;8.10;;
71836;SDS011;59686;51.716;7.016;2024-03-25T03:04:20;21.30;;;7.80;;
71836;SDS011;59686;51.716;7.016;2024-03-25T03:06:45;24.03;;;8.27;;
71836;SDS011;59686;51.716;7.016;2024-03-25T03:09:11;17.20;;;8.20;;
71836;SDS011;59686;51.716;7.016;2024-03-25T03:11:36;21.37;;;8.43;;
71836;SDS011;59686;51.716;7.016;2024-03-25T03:14:08;20.50;;;9.40;;
71836;SDS011;59686;51.716;7.016;2024-03-25T03:16:34;19.40;;;8.93;;
71836;SDS011;59686;51.716;7.016;2024-03-25T03:19:00;18.53;;;8.77;;
71836;SDS011;59686;51.716;7.016;2024-03-25T03:21:26;16.77;;;8.60;;
71836;SDS011;59686;51.716;7.016;2024-03-25T03:23:52;16.93;;;9.20;;
71836;SDS011;59686;51.716;7.016;2024-03-25T03:26:18;18.23;;;8.50;;
71836;SDS011;59686;51.716;7.016;2024-03-25T03:28:44;16.53;;;8.30;;
71836;SDS011;59686;51.716;7.016;2024-03-25T03:31:10;17.43;;;8.80;;
71836;SDS011;59686;51.716;7.016;2024-03-25T03:33:35;20.20;;;8.50;;
71836;SDS011;59686;51.716;7.016;2024-03-25T03:36:01;16.67;;;8.53;;
71836;SDS011;59686;51.716;7.016;2024-03-25T03:38:27;18.20;;;8.27;;
71836;SDS011;59686;51.716;7.016;2024-03-25T03:40:59;17.97;;;7.80;;
71836;SDS011;59686;51.716;7.016;2024-03-25T03:43:26;20.33;;;8.30;;
71836;SDS011;59686;51.716;7.016;2024-03-25T03:45:52;14.30;;;7.20;;
71836;SDS011;59686;51.716;7.016;2024-03-25T03:48:18;16.50;;;7.20;;
71836;SDS011;59686;51.716;7.016;2024-03-25T03:50:44;20.20;;;6.93;;
71836;SDS011;59686;51.716;7.016;2024-03-25T03:53:10;16.13;;;6.93;;
71836;SDS011;59686;51.716;7.016;2024-03-25T03:55:36;14.47;;;6.87;;
71836;SDS011;59686;51.716;7.016;2024-03-25T03:58:02;14.33;;;6.57;;
71836;SDS011;59686;51.716;7.016;2024-03-25T04:00:34;16.53;;;6.10;;
71836;SDS011;59686;51.716;7.016;2024-03-25T04:03:00;22.17;;;6.53;;
71836;SDS011;59686;51.716;7.016;2024-03-25T04:05:29;16.83;;;6.07;;
71836;SDS011;59686;51.716;7.016;2024-03-25T04:07:56;18.47;;;6.17;;
71836;SDS011;59686;51.716;7.016;2024-03-25T04:10:22;13.27;;;5.83;;
71836;SDS011;59686;51.716;7.016;2024-03-25T04:12:48;14.93;;;5.60;;
71836;SDS011;59686;51.716;7.016;2024-03-25T04:15:14;12.17;;;5.47;;
71836;SDS011;59686;51.716;7.016;2024-03-25T04:17:43;14.53;;;5.40;;
71836;SDS011;59686;51.716;7.016;2024-03-25T04:20:10;16.77;;;5.17;;
71836;SDS011;59686;51.716;7.016;2024-03-25T04:22:36;13.00;;;5.20;;
71836;SDS011;59686;51.716;7.016;2024-03-25T04:25:06;12.87;;;5.97;;
71836;SDS011;59686;51.716;7.016;2024-03-25T04:27:33;13.30;;;4.80;;
71836;SDS011;59686;51.716;7.016;2024-03-25T04:29:59;12.23;;;4.87;;
71836;SDS011;59686;51.716;7.016;2024-03-25T04:32:25;15.80;;;5.10;;
71836;SDS011;59686;51.716;7.016;2024-03-25T04:34:50;16.20;;;4.97;;
71836;SDS011;59686;51.716;7.016;2024-03-25T04:37:16;13.60;;;4.50;;
71836;SDS011;59686;51.716;7.016;2024-03-25T04:39:44;11.07;;;4.13;;
71836;SDS011;59686;51.716;7.016;2024-03-25T04:42:10;13.03;;;4.40;;
71836;SDS011;59686;51.716;7.016;2024-03-25T04:44:36;13.03;;;5.27;;
71836;SDS011;59686;51.716;7.016;2024-03-25T04:47:02;11.83;;;4.33;;
71836;SDS011;59686;51.716;7.016;2024-03-25T04:49:28;12.70;;;4.70;;
71836;SDS011;59686;51.716;7.016;2024-03-25T04:51:54;9.63;;;4.43;;
71836;SDS011;59686;51.716;7.016;2024-03-25T04:54:21;9.00;;;3.90;;
71836;SDS011;59686;51.716;7.016;2024-03-25T04:56:46;10.57;;;4.10;;
71836;SDS011;59686;51.716;7.016;2024-03-25T04:59:12;10.87;;;4.20;;
71836;SDS011;59686;51.716;7.016;2024-03-25T05:04:09;14.63;;;4.97;;
71836;SDS011;59686;51.716;7.016;2024-03-25T05:06:35;10.27;;;4.33;;
71836;SDS011;59686;51.716;7.016;2024-03-25T05:09:01;10.50;;;3.93;;
71836;SDS011;59686;51.716;7.016;2024-03-25T05:11:27;12.87;;;4.30;;
71836;SDS011;59686;51.716;7.016;2024-03-25T05:13:53;8.20;;;3.57;;
71836;SDS011;59686;51.716;7.016;2024-03-25T05:16:19;7.63;;;3.67;;
71836;SDS011;59686;51.716;7.016;2024-03-25T05:18:44;11.57;;;4.33;;
71836;SDS011;59686;51.716;7.016;2024-03-25T05:21:10;13.47;;;4.07;;
71836;SDS011;59686;51.716;7.016;2024-03-25T05:23:36;8.87;;;3.60;;
71836;SDS011;59686;51.716;7.016;2024-03-25T05:26:01;9.47;;;4.07;;
71836;SDS011;59686;51.716;7.016;2024-03-25T05:28:27;11.43;;;3.93;;
71836;SDS011;59686;51.716;7.016;2024-03-25T05:30:53;8.53;;;3.17;;
71836;SDS011;59686;51.716;7.016;2024-03-25T05:33:19;10.10;;;3.73;;
71836;SDS011;59686;51.716;7.016;2024-03-25T05:35:44;9.87;;;3.87;;
71836;SDS011;59686;51.716;7.016;2024-03-25T05:38:10;8.90;;;4.00;;
71836;SDS011;59686;51.716;7.016;2024-03-25T05:40:36;9.20;;;3.83;;
71836;SDS011;59686;51.716;7.016;2024-03-25T05:43:02;12.63;;;3.73;;
71836;SDS011;59686;51.716;7.016;2024-03-25T05:45:29;8.07;;;3.80;;
71836;SDS011;59686;51.716;7.016;2024-03-25T05:47:54;11.30;;;3.93;;
71836;SDS011;59686;51.716;7.016;2024-03-25T05:50:20;10.80;;;3.90;;
71836;SDS011;59686;51.716;7.016;2024-03-25T05:52:45;8.90;;;3.70;;
71836;SDS011;59686;51.716;7.016;2024-03-25T05:55:11;10.40;;;4.20;;
71836;SDS011;59686;51.716;7.016;2024-03-25T05:57:37;7.57;;;3.27;;
71836;SDS011;59686;51.716;7.016;2024-03-25T06:00:03;8.50;;;3.90;;
71836;SDS011;59686;51.716;7.016;2024-03-25T06:02:29;7.03;;;3.17;;
71836;SDS011;59686;51.716;7.016;2024-03-25T06:04:56;9.67;;;4.03;;
71836;SDS011;59686;51.716;7.016;2024-03-25T06:07:22;9.30;;;3.70;;
71836;SDS011;59686;51.716;7.016;2024-03-25T06:09:47;11.20;;;3.67;;
71836;SDS011;59686;51.716;7.016;2024-03-25T06:12:13;10.40;;;3.97;;
71836;SDS011;59686;51.716;7.016;2024-03-25T06:14:39;9.00;;;3.63;;
71836;SDS011;59686;51.716;7.016;2024-03-25T06:17:05;11.73;;;3.80;;
71836;SDS011;59686;51.716;7.016;2024-03-25T06:19:32;6.93;;;3.17;;
71836;SDS011;59686;51.716;7.016;2024-03-25T06:21:58;8.43;;;3.60;;
71836;SDS011;59686;51.716;7.016;2024-03-25T06:24:23;10.20;;;3.70;;
71836;SDS011;59686;51.716;7.016;2024-03-25T06:26:49;6.97;;;3.40;;
71836;SDS011;59686;51.716;7.016;2024-03-25T06:29:15;10.07;;;3.53;;
71836;SDS011;59686;51.716;7.016;2024-03-25T06:31:41;10.23;;;3.33;;
71836;SDS011;59686;51.716;7.016;2024-03-25T06:34:25;11.17;;;3.80;;
71836;SDS011;59686;51.716;7.016;2024-03-25T06:36:51;11.63;;;4.07;;
71836;SDS011;59686;51.716;7.016;2024-03-25T06:39:16;10.83;;;3.93;;
71836;SDS011;59686;51.716;7.016;2024-03-25T06:41:43;8.90;;;3.60;;
71836;SDS011;59686;51.716;7.016;2024-03-25T06:44:09;11.90;;;4.13;;
71836;SDS011;59686;51.716;7.016;2024-03-25T06:46:35;8.37;;;3.80;;
71836;SDS011;59686;51.716;7.016;2024-03-25T06:49:00;8.27;;;3.43;;
71836;SDS011;59686;51.716;7.016;2024-03-25T06:51:26;12.70;;;3.80;;
71836;SDS011;59686;51.716;7.016;2024-03-25T06:53:52;8.43;;;3.60;;
71836;SDS011;59686;51.716;7.016;2024-03-25T06:56:18;12.37;;;4.13;;
71836;SDS011;59686;51.716;7.016;2024-03-25T06:58:44;11.33;;;3.80;;
71836;SDS011;59686;51.716;7.016;2024-03-25T07:01:11;11.47;;;3.97;;
71836;SDS011;59686;51.716;7.016;2024-03-25T07:03:39;9.53;;;3.57;;
71836;SDS011;59686;51.716;7.016;2024-03-25T07:06:06;9.57;;;3.73;;
71836;SDS011;59686;51.716;7.016;2024-03-25T07:08:31;10.20;;;3.43;;
71836;SDS011;59686;51.716;7.016;2024-03-25T07:10:58;8.47;;;3.50;;
71836;SDS011;59686;51.716;7.016;2024-03-25T07:13:23;8.57;;;3.37;;
71836;SDS011;59686;51.716;7.016;2024-03-25T07:15:49;11.33;;;3.90;;
71836;SDS011;59686;51.716;7.016;2024-03-25T07:18:15;11.40;;;3.90;;
71836;SDS011;59686;51.716;7.016;2024-03-25T07:20:42;9.33;;;3.40;;
71836;SDS011;59686;51.716;7.016;2024-03-25T07:23:08;6.90;;;3.60;;
71836;SDS011;59686;51.716;7.016;2024-03-25T07:25:34;9.73;;;4.00;;
71836;SDS011;59686;51.716;7.016;2024-03-25T07:28:01;11.17;;;4.00;;
71836;SDS011;59686;51.716;7.016;2024-03-25T07:30:27;10.03;;;3.80;;
71836;SDS011;59686;51.716;7.016;2024-03-25T07:32:57;14.90;;;3.87;;
71836;SDS011;59686;51.716;7.016;2024-03-25T07:35:23;12.83;;;3.90;;
71836;SDS011;59686;51.716;7.016;2024-03-25T07:37:49;12.83;;;3.90;;
71836;SDS011;59686;51.716;7.016;2024-03-25T07:40:17;9.83;;;4.27;;
71836;SDS011;59686;51.716;7.016;2024-03-25T07:42:46;12.30;;;3.80;;
71836;SDS011;59686;51.716;7.016;2024-03-25T07:45:13;13.00;;;3.93;;
71836;SDS011;59686;51.716;7.016;2024-03-25T07:47:39;11.10;;;3.97;;
71836;SDS011;59686;51.716;7.016;2024-03-25T07:50:05;11.57;;;3.93;;
71836;SDS011;59686;51.716;7.016;2024-03-25T07:52:32;11.93;;;3.80;;
71836;SDS011;59686;51.716;7.016;2024-03-25T07:54:57;15.77;;;4.13;;
71836;SDS011;59686;51.716;7.016;2024-03-25T07:57:23;12.00;;;4.33;;
71836;SDS011;59686;51.716;7.016;2024-03-25T07:59:49;7.00;;;3.53;;
71836;SDS011;59686;51.716;7.016;2024-03-25T08:02:15;11.97;;;4.33;;
71836;SDS011;59686;51.716;7.016;2024-03-25T08:04:41;8.80;;;3.70;;
71836;SDS011;59686;51.716;7.016;2024-03-25T08:07:06;13.87;;;4.13;;
71836;SDS011;59686;51.716;7.016;2024-03-25T08:09:32;7.90;;;4.10;;
71836;SDS011;59686;51.716;7.016;2024-03-25T08:11:58;11.83;;;3.70;;
71836;SDS011;59686;51.716;7.016;2024-03-25T08:14:25;11.23;;;4.20;;
71836;SDS011;59686;51.716;7.016;2024-03-25T08:16:50;12.93;;;4.00;;
71836;SDS011;59686;51.716;7.016;2024-03-25T08:19:16;11.80;;;4.33;;
71836;SDS011;59686;51.716;7.016;2024-03-25T08:21:42;9.97;;;3.90;;
71836;SDS011;59686;51.716;7.016;2024-03-25T08:24:08;10.23;;;3.50;;
71836;SDS011;59686;51.716;7.016;2024-03-25T08:26:33;13.63;;;4.33;;
71836;SDS011;59686;51.716;7.016;2024-03-25T08:28:59;9.00;;;4.20;;
71836;SDS011;59686;51.716;7.016;2024-03-25T08:31:25;10.77;;;3.83;;
71836;SDS011;59686;51.716;7.016;2024-03-25T08:33:50;12.50;;;3.63;;
71836;SDS011;59686;51.716;7.016;2024-03-25T08:36:16;13.00;;;4.30;;
71836;SDS011;59686;51.716;7.016;2024-03-25T08:38:43;12.13;;;4.13;;
71836;SDS011;59686;51.716;7.016;2024-03-25T08:41:09;11.23;;;3.90;;
71836;SDS011;59686;51.716;7.016;2024-03-25T08:43:35;10.80;;;3.53;;
71836;SDS011;59686;51.716;7.016;2024-03-25T08:46:01;11.77;;;4.00;;
71836;SDS011;59686;51.716;7.016;2024-03-25T08:48:28;11.13;;;3.97;;
71836;SDS011;59686;51.716;7.016;2024-03-25T08:50:54;16.57;;;4.40;;
71836;SDS011;59686;51.716;7.016;2024-03-25T08:53:20;14.20;;;4.77;;
71836;SDS011;59686;51.716;7.016;2024-03-25T08:55:46;15.33;;;4.00;;
71836;SDS011;59686;51.716;7.016;2024-03-25T08:58:13;13.87;;;3.93;;
71836;SDS011;59686;51.716;7.016;2024-03-25T09:00:39;11.63;;;3.30;;
71836;SDS011;59686;51.716;7.016;2024-03-25T09:03:04;12.90;;;3.50;;
71836;SDS011;59686;51.716;7.016;2024-03-25T09:05:30;18.30;;;3.70;;
71836;SDS011;59686;51.716;7.016;2024-03-25T09:07:56;11.53;;;3.87;;
71836;SDS011;59686;51.716;7.016;2024-03-25T09:10:23;8.80;;;3.80;;
71836;SDS011;59686;51.716;7.016;2024-03-25T09:13:08;14.27;;;4.23;;
71836;SDS011;59686;51.716;7.016;2024-03-25T09:15:34;14.23;;;3.77;;
71836;SDS011;59686;51.716;7.016;2024-03-25T09:18:00;18.90;;;3.80;;
71836;SDS011;59686;51.716;7.016;2024-03-25T09:20:26;17.70;;;4.67;;
71836;SDS011;59686;51.716;7.016;2024-03-25T09:22:51;12.57;;;3.40;;
71836;SDS011;59686;51.716;7.016;2024-03-25T09:25:19;11.00;;;3.70;;
71836;SDS011;59686;51.716;7.016;2024-03-25T09:27:45;10.90;;;2.97;;
71836;SDS011;59686;51.716;7.016;2024-03-25T09:30:15;10.57;;;3.20;;
71836;SDS011;59686;51.716;7.016;2024-03-25T09:32:42;14.40;;;3.67;;
71836;SDS011;59686;51.716;7.016;2024-03-25T09:35:08;11.40;;;3.40;;
71836;SDS011;59686;51.716;7.016;2024-03-25T09:37:35;12.23;;;3.20;;
71836;SDS011;59686;51.716;7.016;2024-03-25T09:40:01;9.40;;;3.17;;
71836;SDS011;59686;51.716;7.016;2024-03-25T09:42:39;10.97;;;3.10;;
71836;SDS011;59686;51.716;7.016;2024-03-25T09:45:12;10.50;;;3.53;;
71836;SDS011;59686;51.716;7.016;2024-03-25T09:47:40;12.17;;;3.07;;
71836;SDS011;59686;51.716;7.016;2024-03-25T09:50:10;16.23;;;3.03;;
71836;SDS011;59686;51.716;7.016;2024-03-25T09:52:37;12.20;;;2.97;;
71836;SDS011;59686;51.716;7.016;2024-03-25T09:55:03;9.10;;;2.73;;
71836;SDS011;59686;51.716;7.016;2024-03-25T09:57:30;8.13;;;2.47;;
71836;SDS011;59686;51.716;7.016;2024-03-25T09:59:55;7.07;;;2.70;;
71836;SDS011;59686;51.716;7.016;2024-03-25T10:02:22;8.57;;;2.50;;
71836;SDS011;59686;51.716;7.016;2024-03-25T10:04:51;10.37;;;2.30;;
71836;SDS011;59686;51.716;7.016;2024-03-25T10:07:23;6.87;;;2.63;;
71836;SDS011;59686;51.716;7.016;2024-03-25T10:09:53;11.20;;;2.83;;
71836;SDS011;59686;51.716;7.016;2024-03-25T10:12:19;7.10;;;2.33;;
71836;SDS011;59686;51.716;7.016;2024-03-25T10:14:45;7.97;;;2.33;;
71836;SDS011;59686;51.716;7.016;2024-03-25T10:17:10;8.93;;;2.53;;
71836;SDS011;59686;51.716;7.016;2024-03-25T10:19:36;8.50;;;2.43;;
71836;SDS011;59686;51.716;7.016;2024-03-25T10:22:06;5.97;;;2.63;;
71836;SDS011;59686;51.716;7.016;2024-03-25T10:24:36;10.50;;;2.80;;
71836;SDS011;59686;51.716;7.016;2024-03-25T10:27:21;6.80;;;2.33;;
71836;SDS011;59686;51.716;7.016;2024-03-25T10:29:48;6.00;;;2.10;;
71836;SDS011;59686;51.716;7.016;2024-03-25T10:32:17;10.27;;;2.90;;
71836;SDS011;59686;51.716;7.016;2024-03-25T10:34:43;8.87;;;2.30;;
71836;SDS011;59686;51.716;7.016;2024-03-25T10:37:09;7.83;;;2.40;;
71836;SDS011;59686;51.716;7.016;2024-03-25T10:39:39;11.60;;;2.90;;
71836;SDS011;59686;51.716;7.016;2024-03-25T10:42:14;8.57;;;2.77;;
71836;SDS011;59686;51.716;7.016;2024-03-25T10:44:45;10.70;;;2.67;;
71836;SDS011;59686;51.716;7.016;2024-03-25T10:47:14;9.17;;;2.40;;
71836;SDS011;59686;51.716;7.016;2024-03-25T10:49:48;9.17;;;2.23;;
71836;SDS011;59686;51.716;7.016;2024-03-25T10:52:15;7.90;;;2.30;;
71836;SDS011;59686;51.716;7.016;2024-03-25T10:54:43;8.57;;;2.47;;
71836;SDS011;59686;51.716;7.016;2024-03-25T10:57:12;9.50;;;2.63;;
71836;SDS011;59686;51.716;7.016;2024-03-25T10:59:38;6.13;;;2.23;;
71836;SDS011;59686;51.716;7.016;2024-03-25T11:02:09;11.37;;;2.40;;
71836;SDS011;59686;51.716;7.016;2024-03-25T11:04:36;7.20;;;2.30;;
71836;SDS011;59686;51.716;7.016;2024-03-25T11:09:38;6.07;;;2.40;;
71836;SDS011;59686;51.716;7.016;2024-03-25T11:12:04;7.93;;;2.23;;
71836;SDS011;59686;51.716;7.016;2024-03-25T11:14:30;7.03;;;1.60;;
71836;SDS011;59686;51.716;7.016;2024-03-25T11:17:00;9.23;;;2.10;;
71836;SDS011;59686;51.716;7.016;2024-03-25T11:19:27;5.97;;;1.73;;
71836;SDS011;59686;51.716;7.016;2024-03-25T11:21:55;6.33;;;2.17;;
71836;SDS011;59686;51.716;7.016;2024-03-25T11:24:38;5.60;;;1.90;;
71836;SDS011;59686;51.716;7.016;2024-03-25T11:27:09;5.30;;;1.80;;
71836;SDS011;59686;51.716;7.016;2024-03-25T11:29:35;6.47;;;2.10;;
71836;SDS011;59686;51.716;7.016;2024-03-25T11:32:04;6.93;;;2.00;;
71836;SDS011;59686;51.716;7.016;2024-03-25T11:34:30;5.50;;;1.90;;
71836;SDS011;59686;51.716;7.016;2024-03-25T11:36:56;5.00;;;1.90;;
71836;SDS011;59686;51.716;7.016;2024-03-25T11:39:22;5.33;;;2.20;;
71836;SDS011;59686;51.716;7.016;2024-03-25T11:41:53;5.50;;;2.00;;
71836;SDS011;59686;51.716;7.016;2024-03-25T11:44:19;6.23;;;2.03;;
71836;SDS011;59686;51.716;7.016;2024-03-25T11:46:47;5.77;;;1.70;;
71836;SDS011;59686;51.716;7.016;2024-03-25T11:49:14;6.83;;;2.17;;
71836;SDS011;59686;51.716;7.016;2024-03-25T11:51:40;6.07;;;1.83;;
71836;SDS011;59686;51.716;7.016;2024-03-25T11:54:10;7.07;;;2.00;;
71836;SDS011;59686;51.716;7.016;2024-03-25T11:56:36;6.03;;;1.80;;
71836;SDS011;59686;51.716;7.016;2024-03-25T11:59:05;4.13;;;1.73;;
71836;SDS011;59686;51.716;7.016;2024-03-25T12:01:32;5.97;;;1.70;;
71836;SDS011;59686;51.716;7.016;2024-03-25T12:04:08;7.73;;;2.20;;
71836;SDS011;59686;51.716;7.016;2024-03-25T12:06:40;7.17;;;2.27;;
71836;SDS011;59686;51.716;7.016;2024-03-25T12:09:06;6.07;;;2.40;;
71836;SDS011;59686;51.716;7.016;2024-03-25T12:11:52;5.00;;;1.63;;
71836;SDS011;59686;51.716;7.016;2024-03-25T12:14:20;6.03;;;2.40;;
71836;SDS011;59686;51.716;7.016;2024-03-25T12:16:46;4.90;;;2.07;;
71836;SDS011;59686;51.716;7.016;2024-03-25T12:19:14;4.57;;;2.27;;
71836;SDS011;59686;51.716;7.016;2024-03-25T12:21:41;8.13;;;2.53;;
71836;SDS011;59686;51.716;7.016;2024-03-25T12:24:07;4.83;;;1.90;;
71836;SDS011;59686;51.716;7.016;2024-03-25T12:26:34;6.97;;;2.60;;
71836;SDS011;59686;51.716;7.016;2024-03-25T12:29:00;4.57;;;2.30;;
71836;SDS011;59686;51.716;7.016;2024-03-25T12:31:28;8.57;;;2.70;;
71836;SDS011;59686;51.716;7.016;2024-03-25T12:36:35;6.13;;;2.60;;
71836;SDS011;59686;51.716;7.016;2024-03-25T12:39:01;6.23;;;2.17;;
71836;SDS011;59686;51.716;7.016;2024-03-25T12:41:27;6.63;;;2.40;;
71836;SDS011;59686;51.716;7.016;2024-03-25T12:43:53;5.23;;;2.50;;
71836;SDS011;59686;51.716;7.016;2024-03-25T12:46:20;5.83;;;2.57;;
71836;SDS011;59686;51.716;7.016;2024-03-25T12:48:47;7.57;;;2.70;;
71836;SDS011;59686;51.716;7.016;2024-03-25T12:51:13;5.00;;;2.80;;
71836;SDS011;59686;51.716;7.016;2024-03-25T12:53:40;7.87;;;2.60;;
71836;SDS011;59686;51.716;7.016;2024-03-25T12:56:06;7.17;;;2.43;;
71836;SDS011;59686;51.716;7.016;2024-03-25T12:58:34;5.10;;;2.53;;
71836;SDS011;59686;51.716;7.016;2024-03-25T13:01:00;8.43;;;2.83;;
71836;SDS011;59686;51.716;7.016;2024-03-25T13:03:26;6.53;;;2.90;;
71836;SDS011;59686;51.716;7.016;2024-03-25T13:05:51;7.00;;;2.97;;
71836;SDS011;59686;51.716;7.016;2024-03-25T13:08:19;6.30;;;2.83;;
71836;SDS011;59686;51.716;7.016;2024-03-25T13:10:44;7.43;;;3.20;;
71836;SDS011;59686;51.716;7.016;2024-03-25T13:13:10;6.30;;;3.13;;
71836;SDS011;59686;51.716;7.016;2024-03-25T13:15:36;3.70;;;2.83;;
71836;SDS011;59686;51.716;7.016;2024-03-25T13:18:02;7.57;;;3.27;;
71836;SDS011;59686;51.716;7.016;2024-03-25T13:20:27;8.07;;;2.97;;
71836;SDS011;59686;51.716;7.016;2024-03-25T13:22:53;6.13;;;2.87;;
71836;SDS011;59686;51.716;7.016;2024-03-25T13:25:25;5.07;;;3.37;;
71836;SDS011;59686;51.716;7.016;2024-03-25T13:27:52;8.17;;;3.43;;
71836;SDS011;59686;51.716;7.016;2024-03-25T13:30:18;6.30;;;3.20;;
71836;SDS011;59686;51.716;7.016;2024-03-25T13:32:43;8.17;;;3.57;;
71836;SDS011;59686;51.716;7.016;2024-03-25T13:35:11;5.83;;;3.50;;
71836;SDS011;59686;51.716;7.016;2024-03-25T13:37:37;7.03;;;2.93;;
71836;SDS011;59686;51.716;7.016;2024-03-25T13:40:03;5.27;;;3.00;;
71836;SDS011;59686;51.716;7.016;2024-03-25T13:42:30;5.30;;;3.30;;
71836;SDS011;59686;51.716;7.016;2024-03-25T13:44:56;5.13;;;2.90;;
71836;SDS011;59686;51.716;7.016;2024-03-25T13:47:22;6.80;;;3.00;;
71836;SDS011;59686;51.716;7.016;2024-03-25T13:49:49;9.00;;;3.17;;
71836;SDS011;59686;51.716;7.016;2024-03-25T13:52:14;5.07;;;3.10;;
71836;SDS011;59686;51.716;7.016;2024-03-25T13:54:40;6.00;;;3.07;;
71836;SDS011;59686;51.716;7.016;2024-03-25T13:57:06;7.50;;;3.20;;
71836;SDS011;59686;51.716;7.016;2024-03-25T13:59:31;8.60;;;3.03;;
71836;SDS011;59686;51.716;7.016;2024-03-25T14:01:57;6.83;;;3.20;;
71836;SDS011;59686;51.716;7.016;2024-03-25T14:04:23;6.93;;;3.47;;
71836;SDS011;59686;51.716;7.016;2024-03-25T14:06:49;5.33;;;2.50;;
71836;SDS011;59686;51.716;7.016;2024-03-25T14:09:27;5.37;;;3.20;;
71836;SDS011;59686;51.716;7.016;2024-03-25T14:11:53;5.03;;;2.80;;
71836;SDS011;59686;51.716;7.016;2024-03-25T14:14:18;4.23;;;2.90;;
71836;SDS011;59686;51.716;7.016;2024-03-25T14:16:44;6.83;;;3.40;;
71836;SDS011;59686;51.716;7.016;2024-03-25T14:19:10;7.27;;;3.20;;
71836;SDS011;59686;51.716;7.016;2024-03-25T14:21:36;7.03;;;2.87;;
71836;SDS011;59686;51.716;7.016;2024-03-25T14:24:03;4.87;;;2.80;;
71836;SDS011;59686;51.716;7.016;2024-03-25T14:26:30;5.77;;;2.70;;
71836;SDS011;59686;51.716;7.016;2024-03-25T14:28:57;5.20;;;3.00;;
71836;SDS011;59686;51.716;7.016;2024-03-25T14:31:24;7.00;;;2.70;;
71836;SDS011;59686;51.716;7.016;2024-03-25T14:33:50;4.03;;;2.47;;
71836;SDS011;59686;51.716;7.016;2024-03-25T14:36:16;7.33;;;2.70;;
71836;SDS011;59686;51.716;7.016;2024-03-25T14:38:42;6.83;;;2.90;;
71836;SDS011;59686;51.716;7.016;2024-03-25T14:41:10;8.33;;;3.00;;
71836;SDS011;59686;51.716;7.016;2024-03-25T14:43:36;3.60;;;2.40;;
71836;SDS011;59686;51.716;7.016;2024-03-25T14:46:02;6.63;;;2.90;;
71836;SDS011;59686;51.716;7.016;2024-03-25T14:48:30;3.93;;;2.50;;